createdAt,value
2023-05-18T00:00:16.552Z,100.00
2023-05-18T00:02:43.697Z,100.00
2023-05-18T00:05:10.474Z,100.00
2023-05-18T00:07:37.603Z,100.00
2023-05-18T00:10:04.473Z,100.00
2023-05-18T00:12:31.144Z,100.00
2023-05-18T00:14:57.919Z,100.00
2023-05-18T00:17:24.946Z,100.00
2023-05-18T00:19:51.903Z,100.00
2023-05-18T00:22:19.021Z,100.00
2023-05-18T00:24:46.470Z,100.00
2023-05-18T00:27:13.077Z,100.00
2023-05-18T00:29:39.749Z,100.00
2023-05-18T00:32:06.573Z,100.00
2023-05-18T00:34:33.287Z,100.00
2023-05-18T00:36:59.932Z,100.00
2023-05-18T00:39:26.648Z,100.00
2023-05-18T00:41:53.305Z,100.00
2023-05-18T00:44:20.061Z,100.00
2023-05-18T00:46:46.777Z,100.00
2023-05-18T00:49:13.473Z,100.00
2023-05-18T00:51:40.181Z,100.00
2023-05-18T00:54:08.382Z,100.00
2023-05-18T00:56:35.270Z,100.00
2023-05-18T00:59:02.281Z,100.00
2023-05-18T01:01:29.607Z,100.00
2023-05-18T01:03:57.656Z,100.00
2023-05-18T01:06:27.380Z,100.00
2023-05-18T01:08:54.156Z,100.00
2023-05-18T01:11:29.521Z,100.00
2023-05-18T01:14:03.379Z,100.00
2023-05-18T01:16:34.575Z,100.00
2023-05-18T01:19:05.639Z,100.00
2023-05-18T01:21:46.338Z,100.00
2023-05-18T01:24:16.255Z,100.00
2023-05-18T01:26:45.325Z,100.00
2023-05-18T01:29:13.107Z,100.00
2023-05-18T01:31:40.163Z,100.00
2023-05-18T01:34:06.829Z,100.00
2023-05-18T01:36:33.547Z,100.00
2023-05-18T01:39:01.850Z,100.00
2023-05-18T01:41:29.683Z,100.00
2023-05-18T01:43:56.420Z,100.00
2023-05-18T01:46:36.750Z,100.00
2023-05-18T01:49:32.909Z,100.00
2023-05-18T01:52:04.601Z,100.00
2023-05-18T01:54:31.789Z,100.00
2023-05-18T01:56:58.522Z,100.00
2023-05-18T01:59:25.809Z,100.00
2023-05-18T02:01:59.331Z,100.00
2023-05-18T02:04:27.076Z,100.00
2023-05-18T02:06:54.315Z,100.00
2023-05-18T02:09:21.770Z,100.00
2023-05-18T02:11:49.319Z,100.00
2023-05-18T02:14:16.432Z,100.00
2023-05-18T02:16:47.568Z,100.00
2023-05-18T02:19:14.962Z,100.00
2023-05-18T02:21:43.602Z,100.00
2023-05-18T02:24:10.704Z,100.00
2023-05-18T02:26:37.754Z,100.00
2023-05-18T02:29:06.425Z,100.00
2023-05-18T02:31:33.209Z,100.00
2023-05-18T02:34:01.533Z,100.00
2023-05-18T02:36:28.289Z,100.00
2023-05-18T02:38:55.057Z,100.00
2023-05-18T02:41:22.853Z,100.00
2023-05-18T02:43:49.582Z,100.00
2023-05-18T02:46:16.545Z,100.00
2023-05-18T02:48:45.770Z,100.00
2023-05-18T02:51:12.574Z,100.00
2023-05-18T02:53:39.555Z,100.00
2023-05-18T02:56:08.999Z,100.00
2023-05-18T02:58:44.010Z,100.00
2023-05-18T03:01:27.105Z,100.00
2023-05-18T03:03:54.402Z,100.00
2023-05-18T03:06:26.696Z,100.00
2023-05-18T03:08:57.078Z,100.00
2023-05-18T03:11:29.662Z,100.00
2023-05-18T03:13:56.956Z,100.00
2023-05-18T03:16:28.366Z,100.00
2023-05-18T03:18:58.854Z,100.00
2023-05-18T03:21:33.515Z,100.00
2023-05-18T03:24:00.461Z,100.00
2023-05-18T03:26:30.882Z,100.00
2023-05-18T03:28:57.958Z,100.00
2023-05-18T03:31:25.000Z,100.00
2023-05-18T03:33:52.093Z,100.00
2023-05-18T03:36:18.753Z,100.00
2023-05-18T03:38:46.329Z,100.00
2023-05-18T03:41:13.207Z,100.00
2023-05-18T03:43:39.869Z,100.00
2023-05-18T03:46:06.879Z,100.00
2023-05-18T03:48:33.689Z,100.00
2023-05-18T03:51:00.736Z,100.00
2023-05-18T03:53:29.606Z,100.00
2023-05-18T03:55:56.938Z,100.00
2023-05-18T03:58:23.656Z,100.00
2023-05-18T04:00:50.363Z,100.00
2023-05-18T04:03:17.263Z,100.00
2023-05-18T04:05:44.391Z,100.00
2023-05-18T04:08:14.565Z,100.00
2023-05-18T04:10:42.211Z,100.00
2023-05-18T04:13:08.954Z,100.00
2023-05-18T04:15:36.541Z,100.00
2023-05-18T04:18:03.369Z,100.00
2023-05-18T04:20:30.142Z,100.00
2023-05-18T04:22:57.545Z,100.00
2023-05-18T04:25:28.431Z,100.00
2023-05-18T04:27:55.806Z,100.00
2023-05-18T04:30:23.661Z,100.00
2023-05-18T04:32:51.109Z,100.00
2023-05-18T04:35:18.668Z,100.00
2023-05-18T04:37:45.468Z,100.00
2023-05-18T04:40:18.520Z,100.00
2023-05-18T04:42:48.185Z,100.00
2023-05-18T04:45:19.226Z,100.00
2023-05-18T04:47:46.812Z,100.00
2023-05-18T04:50:14.915Z,100.00
2023-05-18T04:52:47.939Z,100.00
2023-05-18T04:55:26.374Z,100.00
2023-05-18T04:57:56.944Z,100.00
2023-05-18T05:00:24.865Z,100.00
2023-05-18T05:02:51.707Z,100.00
2023-05-18T05:05:19.042Z,100.00
2023-05-18T05:07:45.730Z,100.00
2023-05-18T05:10:12.447Z,100.00
2023-05-18T05:12:39.350Z,100.00
2023-05-18T05:15:06.335Z,100.00
2023-05-18T05:17:33.058Z,100.00
2023-05-18T05:20:00.027Z,100.00
2023-05-18T05:22:26.856Z,100.00
2023-05-18T05:24:53.682Z,100.00
2023-05-18T05:27:20.682Z,100.00
2023-05-18T05:29:47.385Z,100.00
2023-05-18T05:32:14.108Z,100.00
2023-05-18T05:34:45.492Z,100.00
2023-05-18T05:37:12.687Z,100.00
2023-05-18T05:39:39.572Z,100.00
2023-05-18T05:42:06.451Z,100.00
2023-05-18T05:44:33.181Z,100.00
2023-05-18T05:46:59.934Z,100.00
2023-05-18T05:49:26.953Z,100.00
2023-05-18T05:51:53.773Z,100.00
2023-05-18T05:54:20.535Z,100.00
2023-05-18T05:56:47.327Z,100.00
2023-05-18T05:59:15.690Z,100.00
2023-05-18T06:01:42.617Z,100.00
2023-05-18T06:04:12.441Z,100.00
2023-05-18T06:06:39.329Z,100.00
2023-05-18T06:09:07.036Z,100.00
2023-05-18T06:11:33.706Z,100.00
2023-05-18T06:14:00.492Z,100.00
2023-05-18T06:16:27.261Z,100.00
2023-05-18T06:18:54.203Z,100.00
2023-05-18T06:21:20.904Z,100.00
2023-05-18T06:23:48.654Z,100.00
2023-05-18T06:26:34.200Z,100.00
2023-05-18T06:29:21.510Z,100.00
2023-05-18T06:32:08.494Z,100.00
2023-05-18T06:34:38.407Z,100.00
2023-05-18T06:37:05.457Z,100.00
2023-05-18T06:39:32.256Z,100.00
2023-05-18T06:41:59.040Z,100.00
2023-05-18T06:44:31.556Z,100.00
2023-05-18T06:47:24.351Z,100.00
2023-05-18T06:49:51.306Z,100.00
2023-05-18T06:52:18.108Z,100.00
2023-05-18T06:54:45.307Z,100.00
2023-05-18T06:57:12.361Z,100.00
2023-05-18T06:59:39.027Z,100.00
2023-05-18T07:02:06.600Z,100.00
2023-05-18T07:04:33.280Z,100.00
2023-05-18T07:06:59.994Z,100.00
2023-05-18T07:09:26.669Z,100.00
2023-05-18T07:11:53.636Z,100.00
2023-05-18T07:14:20.388Z,100.00
2023-05-18T07:16:47.516Z,100.00
2023-05-18T07:19:15.049Z,100.00
2023-05-18T07:21:42.272Z,100.00
2023-05-18T07:24:08.987Z,100.00
2023-05-18T07:26:35.702Z,100.00
2023-05-18T07:29:02.341Z,100.00
2023-05-18T07:31:29.051Z,100.00
2023-05-18T07:33:55.782Z,100.00
2023-05-18T07:36:22.933Z,100.00
2023-05-18T07:38:54.898Z,100.00
2023-05-18T07:41:22.923Z,100.00
2023-05-18T07:43:50.654Z,100.00
2023-05-18T07:46:17.583Z,100.00
2023-05-18T07:48:45.246Z,100.00
2023-05-18T07:51:12.330Z,100.00
2023-05-18T07:53:39.573Z,100.00
2023-05-18T07:56:07.080Z,100.00
2023-05-18T07:58:34.309Z,100.00
2023-05-18T08:01:01.193Z,100.00
2023-05-18T08:03:28.076Z,100.00
2023-05-18T08:05:54.760Z,100.00
2023-05-18T08:08:21.886Z,100.00
2023-05-18T08:10:48.553Z,100.00
2023-05-18T08:13:15.171Z,100.00
2023-05-18T08:15:41.984Z,100.00
2023-05-18T08:18:08.682Z,100.00
2023-05-18T08:20:35.482Z,100.00
2023-05-18T08:23:02.194Z,100.00
2023-05-18T08:25:29.008Z,100.00
2023-05-18T08:27:55.934Z,100.00
2023-05-18T08:30:22.791Z,99.92
2023-05-18T08:32:49.650Z,99.39
2023-05-18T08:35:16.484Z,100.00
2023-05-18T08:37:43.194Z,100.00
2023-05-18T08:40:12.877Z,100.00
2023-05-18T08:42:49.374Z,100.00
2023-05-18T08:45:19.965Z,100.00
2023-05-18T08:47:46.782Z,100.00
2023-05-18T08:50:15.958Z,100.00
2023-05-18T08:52:43.042Z,100.00
2023-05-18T08:55:11.957Z,100.00
2023-05-18T08:57:39.287Z,100.00
2023-05-18T09:00:06.293Z,100.00
2023-05-18T09:02:32.952Z,100.00
2023-05-18T09:04:59.589Z,100.00
2023-05-18T09:07:27.644Z,100.00
2023-05-18T09:09:54.816Z,100.00
2023-05-18T09:12:24.329Z,100.00
2023-05-18T09:14:51.581Z,100.00
2023-05-18T09:17:18.717Z,100.00
2023-05-18T09:19:45.494Z,99.53
2023-05-18T09:22:12.215Z,98.24
2023-05-18T09:24:38.934Z,97.69
2023-05-18T09:27:06.461Z,97.13
2023-05-18T09:29:33.826Z,95.82
2023-05-18T09:32:06.953Z,94.46
2023-05-18T09:34:41.079Z,94.02
2023-05-18T09:37:07.996Z,93.97
2023-05-18T09:39:34.609Z,94.70
2023-05-18T09:42:02.769Z,95.03
2023-05-18T09:44:33.831Z,94.45
2023-05-18T09:47:00.689Z,93.23
2023-05-18T09:49:29.065Z,94.31
2023-05-18T09:51:56.740Z,94.84
2023-05-18T09:54:24.505Z,95.91
2023-05-18T09:57:02.428Z,97.92
2023-05-18T09:59:36.680Z,99.94
2023-05-18T10:02:06.040Z,100.00
2023-05-18T10:04:39.831Z,100.00
2023-05-18T10:07:11.173Z,100.00
2023-05-18T10:09:38.075Z,100.00
2023-05-18T10:12:10.126Z,100.00
2023-05-18T10:14:36.882Z,100.00
2023-05-18T10:17:15.095Z,100.00
2023-05-18T10:19:43.279Z,100.00
2023-05-18T10:22:10.075Z,100.00
2023-05-18T10:24:40.084Z,100.00
2023-05-18T10:27:07.852Z,100.00
2023-05-18T10:29:34.763Z,100.00
2023-05-18T10:32:06.005Z,100.00
2023-05-18T10:34:54.216Z,100.00
2023-05-18T10:40:43.313Z,100.00
2023-05-18T10:43:10.045Z,100.00
2023-05-18T10:45:37.212Z,100.00
2023-05-18T10:48:05.151Z,100.00
2023-05-18T10:50:32.221Z,100.00
2023-05-18T10:52:59.496Z,100.00
2023-05-18T10:55:27.818Z,100.00
2023-05-18T10:58:01.701Z,100.00
2023-05-18T11:00:28.524Z,100.00
2023-05-18T11:02:55.525Z,100.00
2023-05-18T11:08:09.688Z,100.00
2023-05-18T11:10:43.764Z,100.00
2023-05-18T11:13:13.418Z,100.00
2023-05-18T11:16:02.211Z,100.00
2023-05-18T11:18:36.668Z,100.00
2023-05-18T11:21:03.522Z,100.00
2023-05-18T11:23:31.781Z,100.00
2023-05-18T11:26:04.916Z,100.00
2023-05-18T11:28:33.665Z,100.00
2023-05-18T11:31:00.397Z,100.00
2023-05-18T11:33:28.174Z,100.00
2023-05-18T11:36:01.971Z,100.00
2023-05-18T11:38:48.636Z,100.00
2023-05-18T11:41:31.263Z,100.00
2023-05-18T11:44:18.903Z,100.00
2023-05-18T11:47:04.302Z,100.00
2023-05-18T11:49:47.532Z,100.00
2023-05-18T11:52:21.215Z,100.00
2023-05-18T11:54:57.983Z,100.00
2023-05-18T11:57:24.691Z,100.00
2023-05-18T11:59:55.349Z,100.00
2023-05-18T12:02:22.753Z,100.00
2023-05-18T12:04:51.190Z,100.00
2023-05-18T12:07:18.958Z,100.00
2023-05-18T12:09:47.162Z,100.00
2023-05-18T12:12:17.154Z,100.00
2023-05-18T12:14:45.386Z,100.00
2023-05-18T12:17:12.299Z,100.00
2023-05-18T12:19:41.915Z,100.00
2023-05-18T12:22:09.308Z,100.00
2023-05-18T12:24:36.734Z,100.00
2023-05-18T12:27:07.339Z,100.00
2023-05-18T12:29:34.934Z,100.00
2023-05-18T12:32:05.111Z,100.00
2023-05-18T12:34:32.036Z,100.00
2023-05-18T12:36:58.985Z,100.00
2023-05-18T12:39:28.479Z,100.00
2023-05-18T12:42:08.051Z,100.00
2023-05-18T12:44:34.786Z,100.00
2023-05-18T12:47:01.789Z,100.00
2023-05-18T12:49:28.491Z,100.00
2023-05-18T12:51:55.507Z,100.00
2023-05-18T12:54:29.494Z,100.00
2023-05-18T12:57:02.036Z,100.00
2023-05-18T12:59:29.303Z,100.00
2023-05-18T13:01:56.816Z,100.00
2023-05-18T13:04:23.763Z,100.00
2023-05-18T13:06:50.684Z,100.00
2023-05-18T13:09:17.477Z,100.00
2023-05-18T13:11:52.023Z,100.00
2023-05-18T13:14:27.358Z,100.00
2023-05-18T13:16:54.163Z,100.00
2023-05-18T13:19:21.125Z,100.00
2023-05-18T13:21:54.978Z,100.00
2023-05-18T13:24:21.796Z,100.00
2023-05-18T13:26:48.627Z,100.00
2023-05-18T13:29:15.395Z,100.00
2023-05-18T13:31:42.185Z,100.00
2023-05-18T13:34:08.893Z,100.00
2023-05-18T13:36:36.688Z,100.00
2023-05-18T13:39:07.465Z,100.00
2023-05-18T13:41:36.529Z,100.00
2023-05-18T13:44:03.736Z,100.00
2023-05-18T13:46:30.660Z,100.00
2023-05-18T13:48:57.400Z,100.00
2023-05-18T13:51:24.356Z,100.00
2023-05-18T13:53:51.028Z,100.00
2023-05-18T13:56:17.742Z,100.00
2023-05-18T13:58:44.805Z,100.00
2023-05-18T14:01:13.840Z,100.00
2023-05-18T14:03:41.165Z,100.00
2023-05-18T14:06:08.107Z,100.00
2023-05-18T14:08:34.792Z,100.00
2023-05-18T14:11:01.523Z,100.00
2023-05-18T14:13:28.270Z,100.00
2023-05-18T14:15:55.007Z,100.00
2023-05-18T14:18:21.721Z,100.00
2023-05-18T14:20:48.918Z,100.00
2023-05-18T14:23:15.685Z,100.00
2023-05-18T14:25:43.791Z,100.00
2023-05-18T14:28:10.801Z,100.00
2023-05-18T14:30:37.536Z,100.00
2023-05-18T14:33:04.328Z,100.00
2023-05-18T14:35:31.371Z,100.00
2023-05-18T14:37:58.088Z,100.00
2023-05-18T14:40:24.868Z,100.00
2023-05-18T14:42:53.642Z,100.00
2023-05-18T14:45:20.808Z,100.00
2023-05-18T14:47:48.129Z,100.00
2023-05-18T14:50:15.057Z,100.00
2023-05-18T14:52:41.787Z,100.00
2023-05-18T14:55:08.890Z,100.00
2023-05-18T14:57:35.690Z,100.00
2023-05-18T15:00:02.537Z,100.00
2023-05-18T15:02:29.298Z,100.00
2023-05-18T15:04:56.140Z,100.00
2023-05-18T15:07:22.891Z,100.00
2023-05-18T15:09:49.625Z,100.00
2023-05-18T15:12:17.833Z,100.00
2023-05-18T15:14:44.599Z,100.00
2023-05-18T15:17:12.513Z,100.00
2023-05-18T15:19:39.285Z,100.00
2023-05-18T15:22:06.196Z,100.00
2023-05-18T15:24:32.958Z,100.00
2023-05-18T15:26:59.689Z,100.00
2023-05-18T15:29:26.668Z,100.00
2023-05-18T15:31:55.090Z,100.00
2023-05-18T15:34:21.932Z,100.00
2023-05-18T15:36:48.801Z,100.00
2023-05-18T15:39:15.628Z,100.00
2023-05-18T15:41:42.349Z,100.00
2023-05-18T15:44:09.057Z,100.00
2023-05-18T15:46:35.959Z,100.00
2023-05-18T15:49:02.815Z,100.00
2023-05-18T15:51:29.845Z,100.00
2023-05-18T15:53:58.695Z,100.00
2023-05-18T15:56:25.926Z,100.00
2023-05-18T15:58:52.863Z,100.00
2023-05-18T16:01:19.794Z,100.00
2023-05-18T16:03:46.714Z,100.00
2023-05-18T16:06:13.490Z,100.00
2023-05-18T16:08:40.226Z,100.00
2023-05-18T16:11:07.218Z,100.00
2023-05-18T16:13:34.053Z,100.00
2023-05-18T16:16:00.936Z,100.00
2023-05-18T16:18:27.778Z,100.00
2023-05-18T16:20:54.900Z,100.00
2023-05-18T16:23:21.638Z,100.00
2023-05-18T16:25:48.472Z,100.00
2023-05-18T16:28:15.240Z,100.00
2023-05-18T16:30:41.939Z,100.00
2023-05-18T16:33:08.773Z,100.00
2023-05-18T16:35:35.873Z,100.00
2023-05-18T16:38:02.791Z,100.00
2023-05-18T16:40:29.778Z,100.00
2023-05-18T16:42:56.932Z,100.00
2023-05-18T16:45:25.180Z,100.00
2023-05-18T16:47:53.298Z,100.00
2023-05-18T16:50:20.229Z,100.00
2023-05-18T16:52:46.978Z,100.00
2023-05-18T16:55:13.729Z,100.00
2023-05-18T16:57:40.462Z,100.00
2023-05-18T17:00:09.798Z,100.00
2023-05-18T17:02:38.285Z,100.00
2023-05-18T17:05:06.646Z,100.00
2023-05-18T17:07:33.510Z,100.00
2023-05-18T17:10:00.297Z,100.00
2023-05-18T17:12:27.044Z,100.00
2023-05-18T17:14:53.823Z,100.00
2023-05-18T17:17:20.660Z,100.00
2023-05-18T17:19:47.373Z,100.00
2023-05-18T17:22:14.076Z,100.00
2023-05-18T17:24:41.542Z,100.00
2023-05-18T17:27:08.318Z,100.00
2023-05-18T17:29:35.897Z,100.00
2023-05-18T17:32:02.857Z,100.00
2023-05-18T17:34:30.696Z,100.00
2023-05-18T17:36:57.655Z,100.00
2023-05-18T17:39:24.916Z,100.00
2023-05-18T17:41:54.232Z,100.00
2023-05-18T17:44:21.068Z,100.00
2023-05-18T17:46:47.937Z,100.00
2023-05-18T17:49:14.714Z,100.00
2023-05-18T17:51:41.839Z,100.00
2023-05-18T17:54:08.587Z,100.00
2023-05-18T17:56:35.356Z,100.00
2023-05-18T17:59:02.180Z,100.00
2023-05-18T18:01:29.421Z,100.00
2023-05-18T18:03:56.692Z,100.00
2023-05-18T18:06:23.674Z,100.00
2023-05-18T18:08:51.039Z,100.00
2023-05-18T18:11:17.872Z,100.00
2023-05-18T18:13:44.568Z,100.00
2023-05-18T18:16:11.418Z,100.00
2023-05-18T18:18:41.095Z,100.00
2023-05-18T18:21:10.054Z,100.00
2023-05-18T18:23:37.106Z,100.00
2023-05-18T18:26:04.187Z,100.00
2023-05-18T18:28:31.449Z,100.00
2023-05-18T18:30:58.243Z,100.00
2023-05-18T18:33:28.129Z,100.00
2023-05-18T18:35:55.552Z,100.00
2023-05-18T18:38:22.392Z,100.00
2023-05-18T18:40:49.132Z,100.00
2023-05-18T18:43:16.210Z,100.00
2023-05-18T18:45:43.048Z,100.00
2023-05-18T18:48:09.859Z,100.00
2023-05-18T18:50:36.827Z,100.00
2023-05-18T18:53:03.552Z,100.00
2023-05-18T18:55:30.587Z,100.00
2023-05-18T18:57:59.544Z,100.00
2023-05-18T19:00:26.485Z,100.00
2023-05-18T19:02:53.348Z,100.00
2023-05-18T19:05:23.423Z,100.00
2023-05-18T19:07:50.986Z,100.00
2023-05-18T19:10:17.721Z,100.00
2023-05-18T19:12:44.496Z,100.00
2023-05-18T19:15:13.284Z,100.00
2023-05-18T19:17:43.293Z,100.00
2023-05-18T19:20:13.446Z,100.00
2023-05-18T19:22:41.509Z,100.00
2023-05-18T19:25:08.570Z,100.00
2023-05-18T19:27:35.360Z,100.00
2023-05-18T19:30:05.195Z,100.00
2023-05-18T19:32:33.643Z,100.00
2023-05-18T19:35:00.583Z,100.00
2023-05-18T19:37:27.489Z,100.00
2023-05-18T19:39:55.692Z,100.00
2023-05-18T19:42:22.416Z,100.00
2023-05-18T19:44:49.176Z,100.00
2023-05-18T19:47:16.010Z,100.00
2023-05-18T19:49:42.834Z,100.00
2023-05-18T19:52:12.789Z,100.00
2023-05-18T19:54:39.610Z,100.00
2023-05-18T19:57:06.342Z,100.00
2023-05-18T19:59:33.846Z,100.00
2023-05-18T20:02:00.688Z,100.00
2023-05-18T20:04:28.746Z,100.00
2023-05-18T20:06:59.177Z,100.00
2023-05-18T20:09:26.068Z,100.00
2023-05-18T20:11:53.426Z,100.00
2023-05-18T20:14:20.268Z,100.00
2023-05-18T20:16:47.009Z,100.00
2023-05-18T20:19:15.150Z,100.00
2023-05-18T20:21:42.295Z,100.00
2023-05-18T20:24:09.029Z,100.00
2023-05-18T20:26:35.877Z,100.00
2023-05-18T20:29:02.984Z,100.00
2023-05-18T20:31:29.809Z,100.00
2023-05-18T20:33:58.014Z,100.00
2023-05-18T20:36:25.331Z,100.00
2023-05-18T20:38:53.406Z,100.00
2023-05-18T20:41:21.042Z,100.00
2023-05-18T20:43:50.417Z,100.00
2023-05-18T20:46:17.622Z,100.00
2023-05-18T20:48:44.859Z,100.00
2023-05-18T20:51:18.802Z,100.00
2023-05-18T20:53:47.133Z,100.00
2023-05-18T20:56:15.736Z,100.00
2023-05-18T20:58:48.839Z,100.00
2023-05-18T21:01:16.375Z,100.00
2023-05-18T21:03:45.500Z,100.00
2023-05-18T21:06:15.918Z,100.00
2023-05-18T21:08:45.822Z,100.00
2023-05-18T21:11:12.755Z,100.00
2023-05-18T21:13:39.562Z,100.00
2023-05-18T21:16:08.474Z,100.00
2023-05-18T21:18:35.462Z,100.00
2023-05-18T21:21:02.487Z,100.00
2023-05-18T21:23:29.384Z,100.00
2023-05-18T21:25:56.506Z,100.00
2023-05-18T21:28:25.246Z,100.00
2023-05-18T21:30:52.360Z,100.00
2023-05-18T21:33:19.442Z,100.00
2023-05-18T21:35:46.439Z,100.00
2023-05-18T21:38:13.151Z,100.00
2023-05-18T21:40:43.496Z,100.00
2023-05-18T21:43:10.780Z,100.00
2023-05-18T21:45:37.695Z,100.00
2023-05-18T21:48:04.856Z,100.00
2023-05-18T21:50:35.166Z,100.00
2023-05-18T21:53:05.594Z,100.00
2023-05-18T21:55:32.351Z,100.00
2023-05-18T21:57:59.283Z,100.00
2023-05-18T22:00:26.973Z,100.00
2023-05-18T22:02:53.951Z,100.00
2023-05-18T22:05:20.716Z,100.00
2023-05-18T22:07:47.971Z,100.00
2023-05-18T22:10:14.718Z,100.00
2023-05-18T22:12:43.574Z,100.00
2023-05-18T22:15:10.739Z,100.00
2023-05-18T22:17:37.553Z,100.00
2023-05-18T22:20:11.582Z,100.00
2023-05-18T22:22:40.354Z,100.00
2023-05-18T22:25:07.591Z,100.00
2023-05-18T22:27:36.764Z,100.00
2023-05-18T22:30:04.894Z,100.00
2023-05-18T22:32:31.751Z,100.00
2023-05-18T22:35:00.241Z,100.00
2023-05-18T22:37:27.005Z,100.00
2023-05-18T22:39:53.822Z,100.00
2023-05-18T22:42:21.440Z,100.00
2023-05-18T22:44:48.418Z,100.00
2023-05-18T22:47:19.771Z,100.00
2023-05-18T22:49:46.755Z,100.00
2023-05-18T22:52:13.501Z,100.00
2023-05-18T22:54:40.200Z,100.00
2023-05-18T22:57:07.229Z,100.00
2023-05-18T22:59:34.864Z,100.00
2023-05-18T23:02:01.615Z,100.00
2023-05-18T23:04:28.386Z,100.00
2023-05-18T23:06:57.134Z,100.00
2023-05-18T23:09:27.031Z,100.00
2023-05-18T23:11:56.778Z,100.00
2023-05-18T23:14:24.597Z,100.00
2023-05-18T23:16:53.600Z,100.00
2023-05-18T23:19:20.606Z,100.00
2023-05-18T23:21:47.459Z,100.00
2023-05-18T23:24:14.514Z,100.00
2023-05-18T23:26:42.242Z,100.00
2023-05-18T23:29:09.069Z,100.00
2023-05-18T23:31:35.976Z,100.00
2023-05-18T23:34:02.959Z,100.00
2023-05-18T23:36:35.008Z,100.00
2023-05-18T23:39:02.451Z,100.00
2023-05-18T23:41:29.861Z,100.00
2023-05-18T23:43:56.803Z,100.00
2023-05-18T23:46:23.677Z,100.00
2023-05-18T23:48:52.565Z,100.00
2023-05-18T23:51:21.398Z,100.00
2023-05-18T23:53:48.710Z,100.00
2023-05-18T23:56:15.708Z,100.00
2023-05-18T23:58:43.072Z,100.00
